Cantua Creek, CA

4:19 AM PST on December 28, 2014 (GMT -0800)
GFWS112 | Change Station
CLOSE
Current Station
Personal Weather Station
Location: Kerman, CA
Elevation: 197 ft
Nearby Weather Stations

Elev 197 ft 36.65 °N, 120.09 °W | Updated 13 minutes ago

Partly Cloudy
Partly Cloudy
34.4 °F
Feels Like 34 °F
N
0.0
Wind Variable Wind from West
Gusts 0.0 mph

Today
High -- | Low -- °F
--% Chance of Precip.
Yesterday
High -- | Low -- °F
Precip. -- in
7:12 AM 4:53 PM
Waxing Crescent, 47% visible
Pressure 30.35 in
Visibility -9999.0 miles
Clouds Clear
Windchill 34 °F
Dew Point 33 °F
Humidity 96%
Rainfall 0.00 in
Snow Depth Not available.
UV 0 out of 12
Pollen .90 out of 12
Air Quality Not available.
Flu Activity Not available.
METAR KNLC 281156Z AUTO 31006KT CLR 00/M01 A3034 RMK AO2 SLP277 T00001011 10028 21006 58004 RVRNO $

More Conditions Fewer Conditions

Pressure 30.35 in
Visibility -9999.0 miles
Clouds Clear
Windchill 34 °F
Dew Point 33 °F
Humidity 96%
Rainfall 0.00 in
Snow Depth Not available.
UV 0 out of 12
Pollen .90 out of 12
Air Quality Not available.
Flu Activity Not available.
METAR KNLC 281156Z AUTO 31006KT CLR 00/M01 A3034 RMK AO2 SLP277 T00001011 10028 21006 58004 RVRNO $

More Conditions Fewer Conditions

10-Day Weather Forecast

Almanac

Astronomy

Dec. 28, 2014 Rise Set
Actual Time
Civil Twilight
Nautical Twilight
Astronomical Twilight
Moon
Length of Visible Light
Length of Day
Tomorrow will be .
, % of the Moon is Illuminated

Today's Extremes

State Highs State Lows

Community

WunderPhotos

Upload Photos

1,781,238 photos uploaded!

WunderBlogs® & News

Nearby

Air Quality

  Air Quality AQ Index Pollutant
Not available.

Snow Depth

Station Depth Elevation

Earthquake Activity

City Distance Mag. Time & Date
Minimum magnitude displayed is 2.5.

Coastal Water Temperatures

Place Temperature

Nearby Weather Stations